createdAt,value
2018-11-10T00:02:14.123Z,50.25
2018-11-10T00:04:42.315Z,49.60
2018-11-10T00:07:10.495Z,54.53
2018-11-10T00:09:38.696Z,52.83
2018-11-10T00:12:06.798Z,50.20
2018-11-10T00:14:34.962Z,55.60
2018-11-10T00:17:03.134Z,57.70
2018-11-10T00:19:31.229Z,47.50
2018-11-10T00:21:59.412Z,50.45
2018-11-10T00:24:27.609Z,46.92
2018-11-10T00:26:55.795Z,52.13
2018-11-10T00:29:23.990Z,53.33
2018-11-10T00:31:52.166Z,48.70
2018-11-10T00:34:20.353Z,55.55
2018-11-10T00:36:48.531Z,51.90
2018-11-10T00:39:16.642Z,52.60
2018-11-10T00:41:44.806Z,51.58
2018-11-10T00:44:12.995Z,54.05
2018-11-10T00:46:41.174Z,51.48
2018-11-10T00:49:09.253Z,49.80
2018-11-10T00:51:37.351Z,48.70
2018-11-10T00:54:05.542Z,48.02
2018-11-10T00:56:33.719Z,52.60
2018-11-10T00:59:01.807Z,50.28
2018-11-10T01:01:29.987Z,48.33
2018-11-10T01:03:58.083Z,48.10
2018-11-10T01:06:26.269Z,48.42
2018-11-10T01:08:54.454Z,49.63
2018-11-10T01:11:22.633Z,47.58
2018-11-10T01:13:51.765Z,52.53
2018-11-10T01:16:19.947Z,49.58
2018-11-10T01:18:48.126Z,47.62
2018-11-10T01:21:16.322Z,46.30
2018-11-10T01:23:44.494Z,48.20
2018-11-10T01:26:12.706Z,46.20
2018-11-10T01:28:40.867Z,45.50
2018-11-10T01:31:09.054Z,52.67
2018-11-10T01:33:37.249Z,49.05
2018-11-10T01:36:06.020Z,55.10
2018-11-10T01:38:34.134Z,51.53
2018-11-10T01:41:02.321Z,50.70
2018-11-10T01:43:30.503Z,49.00
2018-11-10T01:45:58.701Z,53.52
2018-11-10T01:48:26.865Z,53.65
2018-11-10T01:50:54.961Z,50.50
2018-11-10T01:53:23.153Z,53.25
2018-11-10T01:55:51.355Z,53.00
2018-11-10T01:58:19.524Z,48.60
2018-11-10T02:00:47.725Z,55.70
2018-11-10T02:03:15.946Z,57.60
2018-11-10T02:05:44.094Z,53.87
2018-11-10T02:08:12.274Z,54.35
2018-11-10T02:10:40.474Z,53.78
2018-11-10T02:13:08.677Z,51.63
2018-11-10T02:15:36.833Z,55.30
2018-11-10T02:18:05.298Z,55.40
2018-11-10T02:20:33.414Z,48.42
2018-11-10T02:23:01.606Z,47.25
2018-11-10T02:25:30.121Z,50.23
2018-11-10T02:27:58.282Z,52.23
2018-11-10T02:30:26.474Z,44.53
2018-11-10T02:32:54.666Z,52.23
2018-11-10T02:35:22.858Z,44.63
2018-11-10T02:37:51.038Z,44.00
2018-11-10T02:40:19.230Z,42.90
2018-11-10T02:42:47.416Z,43.63
2018-11-10T02:45:15.826Z,40.12
2018-11-10T02:47:44.731Z,44.80
2018-11-10T02:50:12.922Z,45.60
2018-11-10T02:52:41.164Z,42.15
2018-11-10T02:55:10.006Z,39.13
2018-11-10T02:57:38.156Z,42.43
2018-11-10T03:00:07.658Z,40.30
2018-11-10T03:02:35.770Z,41.95
2018-11-10T03:05:03.963Z,39.38
2018-11-10T03:07:32.150Z,40.12
2018-11-10T03:10:00.350Z,37.10
2018-11-10T03:12:28.537Z,38.78
2018-11-10T03:14:56.722Z,41.25
2018-11-10T03:17:24.888Z,36.83
2018-11-10T03:19:53.098Z,38.85
2018-11-10T03:22:21.395Z,35.05
2018-11-10T03:24:49.594Z,35.92
2018-11-10T03:27:17.749Z,38.45
2018-11-10T03:29:45.926Z,40.73
2018-11-10T03:32:14.022Z,34.63
2018-11-10T03:34:42.207Z,38.95
2018-11-10T03:37:10.423Z,38.90
2018-11-10T03:39:38.586Z,38.60
2018-11-10T03:42:06.778Z,37.75
2018-11-10T03:44:34.943Z,39.60
2018-11-10T03:47:03.137Z,38.00
2018-11-10T03:49:31.421Z,37.93
2018-11-10T03:51:59.526Z,44.58
2018-11-10T03:54:27.686Z,33.10
2018-11-10T03:56:55.886Z,35.08
2018-11-10T03:59:24.074Z,33.92
2018-11-10T04:01:52.257Z,36.65
2018-11-10T04:04:20.442Z,35.08
2018-11-10T04:06:48.631Z,33.23
2018-11-10T04:09:16.821Z,35.68
2018-11-10T04:11:45.011Z,34.35
2018-11-10T04:14:14.117Z,37.25
2018-11-10T04:16:42.298Z,36.53
2018-11-10T04:19:10.518Z,35.50
2018-11-10T04:21:38.678Z,37.33
2018-11-10T04:24:07.086Z,35.10
2018-11-10T04:26:35.186Z,37.23
2018-11-10T04:29:03.326Z,36.17
2018-11-10T04:31:31.530Z,34.27
2018-11-10T04:33:59.721Z,37.67
2018-11-10T04:36:27.905Z,39.75
2018-11-10T04:38:56.078Z,38.10
2018-11-10T04:41:24.398Z,34.25
2018-11-10T04:43:52.561Z,37.15
2018-11-10T04:46:20.749Z,39.53
2018-11-10T04:48:48.929Z,40.45
2018-11-10T04:51:17.130Z,43.70
2018-11-10T04:53:45.514Z,41.20
2018-11-10T04:56:13.698Z,40.12
2018-11-10T04:58:41.886Z,41.35
2018-11-10T05:01:10.076Z,47.83
2018-11-10T05:03:38.405Z,42.30
2018-11-10T05:06:06.590Z,42.17
2018-11-10T05:08:34.735Z,39.83
2018-11-10T05:11:02.943Z,44.45
2018-11-10T05:13:31.111Z,43.30
2018-11-10T05:15:59.302Z,46.80
2018-11-10T05:18:27.489Z,40.33
2018-11-10T05:20:55.689Z,49.00
2018-11-10T05:23:23.870Z,43.05
2018-11-10T05:25:52.077Z,47.27
2018-11-10T05:28:20.262Z,45.60
2018-11-10T05:30:48.429Z,48.58
2018-11-10T05:33:16.630Z,50.48
2018-11-10T05:35:44.805Z,44.65
2018-11-10T05:38:12.998Z,47.10
2018-11-10T05:40:41.186Z,44.98
2018-11-10T05:43:09.382Z,44.77
2018-11-10T05:45:37.582Z,43.58
2018-11-10T05:48:06.225Z,54.33
2018-11-10T05:50:34.351Z,47.43
2018-11-10T05:53:02.586Z,42.40
2018-11-10T05:55:30.710Z,51.48
2018-11-10T05:57:58.926Z,53.48
2018-11-10T06:00:27.079Z,49.18
2018-11-10T06:02:56.117Z,51.90
2018-11-10T06:05:24.278Z,51.30
2018-11-10T06:07:52.474Z,51.90
2018-11-10T06:10:20.846Z,53.08
2018-11-10T06:12:48.939Z,53.48
2018-11-10T06:15:17.034Z,58.63
2018-11-10T06:17:45.223Z,48.68
2018-11-10T06:20:14.026Z,55.83
2018-11-10T06:22:42.202Z,51.05
2018-11-10T06:25:11.109Z,57.05
2018-11-10T06:27:39.514Z,61.10
2018-11-10T06:30:09.130Z,53.87
2018-11-10T06:32:37.715Z,58.52
2018-11-10T06:35:06.021Z,57.75
2018-11-10T06:37:34.307Z,56.63
2018-11-10T06:40:02.499Z,51.75
2018-11-10T06:42:30.675Z,61.35
2018-11-10T06:44:58.854Z,59.15
2018-11-10T06:47:27.042Z,52.20
2018-11-10T06:49:55.230Z,52.55
2018-11-10T06:52:23.417Z,58.48
2018-11-10T06:54:51.594Z,56.75
2018-11-10T06:57:19.802Z,61.23
2018-11-10T06:59:47.978Z,59.35
2018-11-10T07:02:16.165Z,60.08
2018-11-10T07:04:44.338Z,63.55
2018-11-10T07:07:12.546Z,66.33
2018-11-10T07:09:40.753Z,66.77
2018-11-10T07:12:08.913Z,62.53
2018-11-10T07:14:37.094Z,73.45
2018-11-10T07:17:05.497Z,68.20
2018-11-10T07:19:33.662Z,72.22
2018-11-10T07:22:01.855Z,69.32
2018-11-10T07:24:30.037Z,74.12
2018-11-10T07:26:58.147Z,69.80
2018-11-10T07:29:26.301Z,74.47
2018-11-10T07:31:54.583Z,72.42
2018-11-10T07:34:22.735Z,76.00
2018-11-10T07:36:50.862Z,76.37
2018-11-10T07:39:19.085Z,84.30
2018-11-10T07:41:47.237Z,77.58
2018-11-10T07:44:15.674Z,84.52
2018-11-10T07:46:43.809Z,84.28
2018-11-10T07:49:12.056Z,77.72
2018-11-10T07:51:40.179Z,87.35
2018-11-10T07:54:08.401Z,76.25
2018-11-10T07:56:36.577Z,82.60
2018-11-10T07:59:05.346Z,79.35
2018-11-10T08:01:33.463Z,81.60
2018-11-10T08:04:01.635Z,78.83
2018-11-10T08:06:29.818Z,76.40
2018-11-10T08:08:58.041Z,78.75
2018-11-10T08:11:26.186Z,81.05
2018-11-10T08:13:54.385Z,80.20
2018-11-10T08:16:22.693Z,81.50
2018-11-10T08:18:50.878Z,83.85
2018-11-10T08:21:19.149Z,82.55
2018-11-10T08:23:47.267Z,86.95
2018-11-10T08:26:15.641Z,83.42
2018-11-10T08:28:43.834Z,82.78
2018-11-10T08:31:12.058Z,84.22
2018-11-10T08:33:40.214Z,78.05
2018-11-10T08:36:08.390Z,87.45
2018-11-10T08:38:36.597Z,85.15
2018-11-10T08:41:05.129Z,81.50
2018-11-10T08:43:33.253Z,81.15
2018-11-10T08:46:01.446Z,98.62
2018-11-10T08:48:29.630Z,87.45
2018-11-10T08:50:57.822Z,76.22
2018-11-10T08:53:26.009Z,81.65
2018-11-10T08:55:54.710Z,86.35
2018-11-10T08:58:22.814Z,86.05
2018-11-10T09:00:50.982Z,79.95
2018-11-10T09:03:19.176Z,86.90
2018-11-10T09:05:47.357Z,91.22
2018-11-10T09:08:15.466Z,94.85
2018-11-10T09:10:43.640Z,85.10
2018-11-10T09:13:11.819Z,88.35
2018-11-10T09:15:40.010Z,83.03
2018-11-10T09:18:08.198Z,87.95
2018-11-10T09:20:36.311Z,83.40
2018-11-10T09:23:04.462Z,81.85
2018-11-10T09:25:32.655Z,81.47
2018-11-10T09:28:00.822Z,82.05
2018-11-10T09:30:29.021Z,78.10
2018-11-10T09:32:57.213Z,82.37
2018-11-10T09:35:25.397Z,75.78
2018-11-10T09:37:53.578Z,76.02
2018-11-10T09:40:21.774Z,77.05
2018-11-10T09:42:50.063Z,79.12
2018-11-10T09:45:18.458Z,73.70
2018-11-10T09:47:46.657Z,80.45
2018-11-10T09:50:19.237Z,74.70
2018-11-10T09:52:47.517Z,72.47
2018-11-10T09:55:16.265Z,69.72
2018-11-10T09:57:44.417Z,70.40
2018-11-10T10:00:21.390Z,73.95
2018-11-10T10:02:50.112Z,69.82
2018-11-10T10:05:17.769Z,64.50
2018-11-10T10:07:46.075Z,59.25
2018-11-10T10:10:15.782Z,55.65
2018-11-10T10:12:44.494Z,63.65
2018-11-10T10:15:13.894Z,57.53
2018-11-10T10:17:43.860Z,57.27
2018-11-10T10:20:14.674Z,56.90
2018-11-10T10:22:43.277Z,58.55
2018-11-10T10:25:12.786Z,57.90
2018-11-10T10:27:41.081Z,59.05
2018-11-10T10:30:13.054Z,57.95
2018-11-10T10:32:41.555Z,58.30
2018-11-10T10:35:09.868Z,61.70
2018-11-10T10:37:37.913Z,53.75
2018-11-10T10:40:07.734Z,27.93
2018-11-10T10:42:36.146Z,23.55
2018-11-10T10:45:05.578Z,29.42
2018-11-10T10:47:33.706Z,30.92
2018-11-10T10:50:02.967Z,36.60
2018-11-10T10:52:31.149Z,42.78
2018-11-10T10:54:59.322Z,45.40
2018-11-10T10:57:27.419Z,46.63
2018-11-10T10:59:55.587Z,44.58
2018-11-10T11:02:29.157Z,46.40
2018-11-10T11:04:59.042Z,47.05
2018-11-10T11:07:27.214Z,47.33
2018-11-10T11:09:55.337Z,41.98
2018-11-10T11:12:23.498Z,46.75
2018-11-10T11:14:51.667Z,46.70
2018-11-10T11:17:19.871Z,48.17
2018-11-10T11:19:48.054Z,47.17
2018-11-10T11:22:16.166Z,51.45
2018-11-10T11:24:44.332Z,47.40
2018-11-10T11:27:12.821Z,44.88
2018-11-10T11:29:41.080Z,51.48
2018-11-10T11:32:09.208Z,49.35
2018-11-10T11:34:37.427Z,48.98
2018-11-10T11:37:05.574Z,50.23
2018-11-10T11:39:33.758Z,50.30
2018-11-10T11:42:01.887Z,50.03
2018-11-10T11:44:30.018Z,53.60
2018-11-10T11:46:58.218Z,47.80
2018-11-10T11:49:26.410Z,47.08
2018-11-10T11:51:55.614Z,44.67
2018-11-10T11:54:23.808Z,49.33
2018-11-10T11:56:51.987Z,50.12
2018-11-10T11:59:20.390Z,48.87
2018-11-10T12:01:48.566Z,53.28
2018-11-10T12:04:17.131Z,52.35
2018-11-10T12:06:45.269Z,52.30
2018-11-10T12:09:13.463Z,47.62
2018-11-10T12:11:41.822Z,50.63
2018-11-10T12:14:10.058Z,48.78
2018-11-10T12:16:38.256Z,47.48
2018-11-10T12:19:06.495Z,46.37
2018-11-10T12:21:34.674Z,47.43
2018-11-10T12:24:02.854Z,49.27
2018-11-10T12:26:31.036Z,43.63
2018-11-10T12:28:59.341Z,48.25
2018-11-10T12:31:27.643Z,50.20
2018-11-10T12:33:55.817Z,40.90
2018-11-10T12:36:24.001Z,36.53
2018-11-10T12:38:52.277Z,39.80
2018-11-10T12:41:20.353Z,42.27
2018-11-10T12:43:48.549Z,41.55
2018-11-10T12:46:16.741Z,43.20
2018-11-10T12:48:44.947Z,36.73
2018-11-10T12:51:13.095Z,41.48
2018-11-10T12:53:41.299Z,35.58
2018-11-10T12:56:09.483Z,36.77
2018-11-10T12:58:37.670Z,40.45
2018-11-10T13:01:05.866Z,35.03
2018-11-10T13:03:34.076Z,39.30
2018-11-10T13:06:02.221Z,40.70
2018-11-10T13:08:30.413Z,36.45
2018-11-10T13:10:58.678Z,36.70
2018-11-10T13:13:26.807Z,40.17
2018-11-10T13:15:54.989Z,37.88
2018-11-10T13:18:23.178Z,35.90
2018-11-10T13:20:51.428Z,37.70
2018-11-10T13:23:19.610Z,38.92
2018-11-10T13:25:47.741Z,33.13
2018-11-10T13:28:15.933Z,37.17
2018-11-10T13:30:44.205Z,35.50
2018-11-10T13:33:12.290Z,35.25
2018-11-10T13:35:40.485Z,31.70
2018-11-10T13:38:08.746Z,34.75
2018-11-10T13:40:36.862Z,30.62
2018-11-10T13:43:05.609Z,31.45
2018-11-10T13:45:33.762Z,25.35
2018-11-10T13:48:01.939Z,27.65
2018-11-10T13:50:30.138Z,27.77
2018-11-10T13:52:58.759Z,26.07
2018-11-10T13:55:26.502Z,25.70
2018-11-10T13:57:54.677Z,25.43
2018-11-10T14:00:22.874Z,23.75
2018-11-10T14:02:51.061Z,25.17
2018-11-10T14:05:19.306Z,24.45
2018-11-10T14:07:47.427Z,23.22
2018-11-10T14:10:16.367Z,22.62
2018-11-10T14:12:45.519Z,24.37
2018-11-10T14:15:13.630Z,18.77
2018-11-10T14:17:42.331Z,21.27
2018-11-10T14:20:12.709Z,19.90
2018-11-10T14:22:40.950Z,19.50
2018-11-10T14:25:10.886Z,18.02
2018-11-10T14:27:39.797Z,16.93
2018-11-10T14:30:10.337Z,19.25
2018-11-10T14:32:38.725Z,16.97
2018-11-10T14:35:07.724Z,19.45
2018-11-10T14:37:36.123Z,17.98
2018-11-10T14:40:05.695Z,21.37
2018-11-10T14:42:33.842Z,19.25
2018-11-10T14:45:01.994Z,18.17
2018-11-10T14:47:30.194Z,22.75
2018-11-10T14:49:58.406Z,19.82
2018-11-10T14:52:26.590Z,20.00
2018-11-10T14:54:54.754Z,17.12
2018-11-10T14:57:22.951Z,18.77
2018-11-10T14:59:51.126Z,18.27
2018-11-10T15:02:19.335Z,16.40
2018-11-10T15:04:47.506Z,21.17
2018-11-10T15:07:15.898Z,21.62
2018-11-10T15:09:44.090Z,19.70
2018-11-10T15:12:12.303Z,18.85
2018-11-10T15:14:40.392Z,17.12
2018-11-10T15:17:08.750Z,18.73
2018-11-10T15:19:36.937Z,20.52
2018-11-10T15:22:05.463Z,16.45
2018-11-10T15:24:33.622Z,19.48
2018-11-10T15:27:01.802Z,19.57
2018-11-10T15:29:30.054Z,20.85
2018-11-10T15:31:58.187Z,17.40
2018-11-10T15:34:26.445Z,19.40
2018-11-10T15:36:54.678Z,21.42
2018-11-10T15:39:22.839Z,17.60
2018-11-10T15:41:51.367Z,16.97
2018-11-10T15:44:19.526Z,16.93
2018-11-10T15:46:47.721Z,19.75
2018-11-10T15:49:16.065Z,16.60
2018-11-10T15:51:44.189Z,19.07
2018-11-10T15:54:12.298Z,20.32
2018-11-10T15:56:40.464Z,15.63
2018-11-10T15:59:09.255Z,21.30
2018-11-10T16:01:37.442Z,16.00
2018-11-10T16:04:05.971Z,15.72
2018-11-10T16:06:34.250Z,14.98
2018-11-10T16:09:02.435Z,14.30
2018-11-10T16:11:30.633Z,13.93
2018-11-10T16:13:58.778Z,14.03
2018-11-10T16:16:26.974Z,11.97
2018-11-10T16:18:55.134Z,13.45
2018-11-10T16:21:23.330Z,15.60
2018-11-10T16:23:51.417Z,13.95
2018-11-10T16:26:19.614Z,12.78
2018-11-10T16:28:47.797Z,12.13
2018-11-10T16:31:15.979Z,11.28
2018-11-10T16:33:44.160Z,8.38
2018-11-10T16:36:12.385Z,11.85
2018-11-10T16:38:40.487Z,10.32
2018-11-10T16:41:08.617Z,12.65
2018-11-10T16:43:36.806Z,9.85
2018-11-10T16:46:05.737Z,9.05
2018-11-10T16:48:33.906Z,7.45
2018-11-10T16:51:02.091Z,8.08
2018-11-10T16:53:30.270Z,6.85
2018-11-10T16:55:58.450Z,9.15
2018-11-10T16:58:26.634Z,7.60
2018-11-10T17:00:54.821Z,6.10
2018-11-10T17:03:23.028Z,7.03
2018-11-10T17:05:51.190Z,8.00
2018-11-10T17:08:19.437Z,6.00
2018-11-10T17:10:47.567Z,5.87
2018-11-10T17:13:16.025Z,6.00
2018-11-10T17:15:44.147Z,8.10
2018-11-10T17:18:12.362Z,9.45
2018-11-10T17:20:40.589Z,9.80
2018-11-10T17:23:08.765Z,7.08
2018-11-10T17:25:36.926Z,6.28
2018-11-10T17:28:05.120Z,5.60
2018-11-10T17:30:33.298Z,10.68
2018-11-10T17:33:01.482Z,7.95
2018-11-10T17:35:29.658Z,7.37
2018-11-10T17:37:57.922Z,9.00
2018-11-10T17:40:25.981Z,5.28
2018-11-10T17:42:54.130Z,7.55
2018-11-10T17:45:22.314Z,5.35
2018-11-10T17:47:50.504Z,6.97
2018-11-10T17:50:18.894Z,5.47
2018-11-10T17:52:47.163Z,10.53
2018-11-10T17:55:16.195Z,5.50
2018-11-10T17:57:44.973Z,4.97
2018-11-10T18:00:13.102Z,6.03
2018-11-10T18:02:41.264Z,5.15
2018-11-10T18:05:11.590Z,5.67
2018-11-10T18:07:39.785Z,5.47
2018-11-10T18:10:09.714Z,6.12
2018-11-10T18:12:37.914Z,5.08
2018-11-10T18:15:07.599Z,5.97
2018-11-10T18:17:35.814Z,6.20
2018-11-10T18:20:04.154Z,5.47
2018-11-10T18:22:32.286Z,4.40
2018-11-10T18:25:00.459Z,5.03
2018-11-10T18:27:28.642Z,10.23
2018-11-10T18:29:56.820Z,6.00
2018-11-10T18:32:25.028Z,4.58
2018-11-10T18:34:53.197Z,5.55
2018-11-10T18:37:21.402Z,4.15
2018-11-10T18:39:49.621Z,4.37
2018-11-10T18:42:17.770Z,7.40
2018-11-10T18:44:46.053Z,5.67
2018-11-10T18:47:14.238Z,4.78
2018-11-10T18:49:42.434Z,4.03
2018-11-10T18:52:10.672Z,4.17
2018-11-10T18:54:38.822Z,4.22
2018-11-10T18:57:07.079Z,6.70
2018-11-10T18:59:35.211Z,4.75
2018-11-10T19:02:03.372Z,8.93
2018-11-10T19:04:31.881Z,5.75
2018-11-10T19:07:00.066Z,5.03
2018-11-10T19:09:28.258Z,4.10
2018-11-10T19:11:56.426Z,4.85
2018-11-10T19:14:24.614Z,4.30
2018-11-10T19:16:52.806Z,5.53
2018-11-10T19:19:20.991Z,7.17
2018-11-10T19:21:49.173Z,4.25
2018-11-10T19:24:17.383Z,5.42
2018-11-10T19:26:45.478Z,5.50
2018-11-10T19:29:13.643Z,4.72
2018-11-10T19:31:41.813Z,5.25
2018-11-10T19:34:10.017Z,5.20
2018-11-10T19:36:38.208Z,5.95
2018-11-10T19:39:07.879Z,6.55
2018-11-10T19:41:36.121Z,8.13
2018-11-10T19:44:04.331Z,10.60
2018-11-10T19:46:32.504Z,7.17
2018-11-10T19:49:00.677Z,7.83
2018-11-10T19:51:29.035Z,8.28
2018-11-10T19:53:57.041Z,11.38
2018-11-10T19:56:25.222Z,10.63
2018-11-10T19:58:53.418Z,11.00
2018-11-10T20:01:21.606Z,12.10
2018-11-10T20:03:49.798Z,10.53
2018-11-10T20:06:17.982Z,12.03
2018-11-10T20:08:46.186Z,17.00
2018-11-10T20:11:14.413Z,14.58
2018-11-10T20:13:42.570Z,13.85
2018-11-10T20:16:10.723Z,18.60
2018-11-10T20:18:38.914Z,15.65
2018-11-10T20:21:07.102Z,16.82
2018-11-10T20:23:35.277Z,13.72
2018-11-10T20:26:03.478Z,15.20
2018-11-10T20:28:31.666Z,16.95
2018-11-10T20:30:59.866Z,17.23
2018-11-10T20:33:28.055Z,16.57
2018-11-10T20:35:56.230Z,19.90
2018-11-10T20:38:26.048Z,15.72
2018-11-10T20:40:54.133Z,16.07
2018-11-10T20:43:22.315Z,14.85
2018-11-10T20:45:50.505Z,16.42
2018-11-10T20:48:18.682Z,16.30
2018-11-10T20:50:46.882Z,12.68
2018-11-10T20:53:15.062Z,11.78
2018-11-10T20:55:43.263Z,16.82
2018-11-10T20:58:11.454Z,11.75
2018-11-10T21:00:39.720Z,14.83
2018-11-10T21:03:07.806Z,12.53
2018-11-10T21:05:36.066Z,13.50
2018-11-10T21:08:04.198Z,11.63
2018-11-10T21:10:32.457Z,13.85
2018-11-10T21:13:00.664Z,14.63
2018-11-10T21:15:28.877Z,12.50
2018-11-10T21:17:57.015Z,12.00
2018-11-10T21:20:25.214Z,12.20
2018-11-10T21:22:53.394Z,8.90
2018-11-10T21:25:21.588Z,11.65
2018-11-10T21:27:49.785Z,8.48
2018-11-10T21:30:19.417Z,7.50
2018-11-10T21:32:47.902Z,9.38
2018-11-10T21:35:16.398Z,8.45
2018-11-10T21:37:44.468Z,5.30
2018-11-10T21:40:17.275Z,7.40
2018-11-10T21:42:45.566Z,5.42
2018-11-10T21:45:14.569Z,4.78
2018-11-10T21:47:42.941Z,4.42
2018-11-10T21:50:14.524Z,6.83
2018-11-10T21:52:43.445Z,5.75
2018-11-10T21:55:13.258Z,4.20
2018-11-10T21:57:41.962Z,6.40
2018-11-10T22:00:11.985Z,6.72
2018-11-10T22:02:41.018Z,5.03
2018-11-10T22:05:09.278Z,4.10
2018-11-10T22:07:37.643Z,4.55
2018-11-10T22:10:07.347Z,4.70
2018-11-10T22:12:35.463Z,8.33
2018-11-10T22:15:03.762Z,5.45
2018-11-10T22:17:31.950Z,4.12
2018-11-10T22:20:00.130Z,6.47
2018-11-10T22:22:28.462Z,6.58
2018-11-10T22:24:56.513Z,5.55
2018-11-10T22:27:24.759Z,5.25
2018-11-10T22:29:52.894Z,7.22
2018-11-10T22:32:21.098Z,9.08
2018-11-10T22:34:49.257Z,6.40
2018-11-10T22:37:17.454Z,6.20
2018-11-10T22:39:45.639Z,5.97
2018-11-10T22:42:13.839Z,7.62
2018-11-10T22:44:42.006Z,6.30
2018-11-10T22:47:10.194Z,8.63
2018-11-10T22:49:38.383Z,5.55
2018-11-10T22:52:06.590Z,8.98
2018-11-10T22:54:34.742Z,7.35
2018-11-10T22:57:03.040Z,6.87
2018-11-10T22:59:31.131Z,8.30
2018-11-10T23:01:59.318Z,8.40
2018-11-10T23:04:27.506Z,9.50
2018-11-10T23:06:55.678Z,9.75
2018-11-10T23:09:23.881Z,11.30
2018-11-10T23:11:52.068Z,12.07
2018-11-10T23:14:20.259Z,13.32
2018-11-10T23:16:48.418Z,18.35
2018-11-10T23:19:16.618Z,14.35
2018-11-10T23:21:44.808Z,17.02
2018-11-10T23:24:12.988Z,18.05
2018-11-10T23:26:41.171Z,17.17
2018-11-10T23:29:09.374Z,18.30
2018-11-10T23:31:37.538Z,19.00
2018-11-10T23:34:05.738Z,26.40
2018-11-10T23:36:33.922Z,24.05
2018-11-10T23:39:02.120Z,24.20
2018-11-10T23:41:30.302Z,19.17
2018-11-10T23:43:58.494Z,21.70
2018-11-10T23:46:26.658Z,18.25
2018-11-10T23:48:54.857Z,19.48
2018-11-10T23:51:23.079Z,24.00
2018-11-10T23:53:51.247Z,24.20
2018-11-10T23:56:19.418Z,23.00
2018-11-10T23:58:47.607Z,19.73
